Rosite G — WDF8455 — position and weather

sailwx.info

Track history (hours):
 
Tides and Currents Weather Stations Pressure Air Temp Water Temp Dewpoint Dewpoint Depression Visibility Wind Speed Wind Dir Waves Ship Positions

Rosite G

More information available from US FCC via Universal Licensing System and Coast Guard Vessel Documentation Center.

Last reported at 2014-Aug-25 09:09 UTC. Time now 2014-Sep-01 18:57 UTC.
Position N 29°05' W 090°14'.

Length 40 m; draft 2.6 m.

Type: Ship. MMSI: 367495040.

Date/timePositionNaut miles runAvg speedWind from/ knotsBaromVisibWave heightAir tempDewpointWater temp
2014-Aug-25 09:09N 29°05' W 090°14'0 0.0
2014-Aug-25 08:33N 29°05' W 090°14'  
2014-Aug-22 07:08N 29°22' W 090°43'0 0.0
2014-Aug-22 06:28N 29°22' W 090°43'1 1.5
2014-Aug-22 05:33N 29°21' W 090°44'6 6.0
2014-Aug-22 04:33N 29°15' W 090°41'9 7.2
2014-Aug-22 03:20N 29°08' W 090°35'16 0.9
2014-Aug-21 10:31N 29°22' W 090°43'0 0.0
2014-Aug-21 09:32N 29°22' W 090°43'9 2.6
2014-Aug-21 06:14N 29°14' W 090°40'  
Track history (hours):
 
Tides and Currents Weather Stations Pressure Air Temp Water Temp Dewpoint Dewpoint Depression Visibility Wind Speed Wind Dir Waves Ship Positions

Rosite G

More information available from US FCC via Universal Licensing System and Coast Guard Vessel Documentation Center.

Last reported at 2014-Aug-25 09:09 UTC. Time now 2014-Sep-01 18:57 UTC.
Position N 29°05' W 090°14'.

Length 40 m; draft 2.6 m.

Type: Ship. MMSI: 367495040.

Date/timePositionNaut miles runAvg speedWind from/ knotsBaromVisibWave heightAir tempDewpointWater temp
2014-Aug-25 09:09N 29°05' W 090°14'0 0.0
2014-Aug-25 08:33N 29°05' W 090°14'  
2014-Aug-22 07:08N 29°22' W 090°43'0 0.0
2014-Aug-22 06:28N 29°22' W 090°43'1 1.5
2014-Aug-22 05:33N 29°21' W 090°44'6 6.0
2014-Aug-22 04:33N 29°15' W 090°41'9 7.2
2014-Aug-22 03:20N 29°08' W 090°35'16 0.9
2014-Aug-21 10:31N 29°22' W 090°43'0 0.0
2014-Aug-21 09:32N 29°22' W 090°43'9 2.6
2014-Aug-21 06:14N 29°14' W 090°40'  

Dump ship's entire track history